createdAt,value
2019-04-05T00:00:24.637Z,21.43
2019-04-05T00:05:18.752Z,21.73
2019-04-05T00:10:13.036Z,22.63
2019-04-05T00:15:15.077Z,20.90
2019-04-05T00:20:05.174Z,20.37
2019-04-05T00:24:59.255Z,21.40
2019-04-05T00:29:53.235Z,21.30
2019-04-05T00:34:47.191Z,20.43
2019-04-05T00:39:41.195Z,20.97
2019-04-05T00:44:35.175Z,21.23
2019-04-05T00:49:29.245Z,19.83
2019-04-05T00:54:23.203Z,21.80
2019-04-05T00:59:17.143Z,20.47
2019-04-05T01:04:11.129Z,21.57
2019-04-05T01:09:06.705Z,21.40
2019-04-05T01:14:00.672Z,21.40
2019-04-05T01:18:54.686Z,20.20
2019-04-05T01:23:51.155Z,21.77
2019-04-05T01:28:45.215Z,20.80
2019-04-05T01:33:39.200Z,22.47
2019-04-05T01:38:33.271Z,20.77
2019-04-05T01:43:27.453Z,22.17
2019-04-05T01:48:21.423Z,20.83
2019-04-05T01:53:15.785Z,21.00
2019-04-05T01:58:10.086Z,21.07
2019-04-05T02:03:04.160Z,19.40
2019-04-05T02:07:58.417Z,22.43
2019-04-05T02:12:52.531Z,22.43
2019-04-05T02:17:46.670Z,23.47
2019-04-05T02:22:40.638Z,22.73
2019-04-05T02:27:34.699Z,23.10
2019-04-05T02:32:28.852Z,22.67
2019-04-05T02:37:22.918Z,22.83
2019-04-05T02:42:17.697Z,23.27
2019-04-05T02:47:12.048Z,22.67
2019-04-05T02:52:06.330Z,24.00
2019-04-05T02:57:01.028Z,22.03
2019-04-05T03:01:55.202Z,21.60
2019-04-05T03:06:50.163Z,23.50
2019-04-05T03:11:44.224Z,22.03
2019-04-05T03:16:41.999Z,22.43
2019-04-05T03:21:39.701Z,23.77
2019-04-05T03:26:36.198Z,23.07
2019-04-05T03:31:30.391Z,23.67
2019-04-05T03:36:24.449Z,23.03
2019-04-05T03:41:18.507Z,22.90
2019-04-05T03:46:12.582Z,23.97
2019-04-05T03:51:07.444Z,22.63
2019-04-05T03:56:02.246Z,23.83
2019-04-05T04:00:56.566Z,23.50
2019-04-05T04:05:50.741Z,23.60
2019-04-05T04:10:45.939Z,24.50
2019-04-05T04:15:40.097Z,25.17
2019-04-05T04:20:41.141Z,24.77
2019-04-05T04:25:36.059Z,26.47
2019-04-05T04:30:30.636Z,26.77
2019-04-05T04:35:24.700Z,26.60
2019-04-05T04:40:18.969Z,26.00
2019-04-05T04:45:13.216Z,26.00
2019-04-05T04:50:07.851Z,26.17
2019-04-05T04:55:02.523Z,27.93
2019-04-05T04:59:56.839Z,27.23
2019-04-05T05:04:51.047Z,26.67
2019-04-05T05:09:45.509Z,26.80
2019-04-05T05:14:39.798Z,27.73
2019-04-05T05:19:33.900Z,26.47
2019-04-05T05:24:28.067Z,25.80
2019-04-05T05:29:22.351Z,25.93
2019-04-05T05:34:16.535Z,24.87
2019-04-05T05:39:10.601Z,26.00
2019-04-05T05:44:04.675Z,26.43
2019-04-05T05:48:58.782Z,25.07
2019-04-05T05:53:52.870Z,24.67
2019-04-05T05:58:46.867Z,25.00
2019-04-05T06:03:40.993Z,25.60
2019-04-05T06:08:35.271Z,23.90
2019-04-05T06:13:29.222Z,24.37
2019-04-05T06:18:23.226Z,23.93
2019-04-05T06:23:17.483Z,22.17
2019-04-05T06:28:11.654Z,23.97
2019-04-05T06:33:05.771Z,21.50
2019-04-05T06:37:59.842Z,24.40
2019-04-05T06:42:53.805Z,24.00
2019-04-05T06:47:47.777Z,23.60
2019-04-05T06:52:41.787Z,23.40
2019-04-05T06:57:35.759Z,22.37
2019-04-05T07:02:29.872Z,22.43
2019-04-05T07:07:24.034Z,24.17
2019-04-05T07:12:20.531Z,24.33
2019-04-05T07:17:14.085Z,24.50
2019-04-05T07:22:08.071Z,24.50
2019-04-05T07:27:02.255Z,23.93
2019-04-05T07:31:56.354Z,25.80
2019-04-05T07:36:50.426Z,25.93
2019-04-05T07:41:44.400Z,25.40
2019-04-05T07:46:38.384Z,23.43
2019-04-05T07:51:32.361Z,23.80
2019-04-05T07:56:26.439Z,22.80
2019-04-05T08:01:20.575Z,23.20
2019-04-05T08:06:15.509Z,22.40
2019-04-05T08:11:09.772Z,23.10
2019-04-05T08:16:03.897Z,18.97
2019-04-05T08:20:57.913Z,18.23
2019-04-05T08:25:52.019Z,19.80
2019-04-05T08:30:45.996Z,19.60
2019-04-05T08:35:40.076Z,19.23
2019-04-05T08:40:34.054Z,17.77
2019-04-05T08:45:28.211Z,18.10
2019-04-05T08:50:22.209Z,17.37
2019-04-05T08:55:16.344Z,16.27
2019-04-05T09:00:10.783Z,14.90
2019-04-05T09:05:06.674Z,13.83
2019-04-05T09:10:00.647Z,15.70
2019-04-05T09:14:54.719Z,15.60
2019-04-05T09:19:48.710Z,15.57
2019-04-05T09:24:42.693Z,13.83
2019-04-05T09:29:36.673Z,13.43
2019-04-05T09:34:30.990Z,13.47
2019-04-05T09:39:25.242Z,12.67
2019-04-05T09:44:19.359Z,12.67
2019-04-05T09:49:13.324Z,12.97
2019-04-05T09:54:07.369Z,13.33
2019-04-05T09:59:01.343Z,12.60
2019-04-05T10:03:55.464Z,13.07
2019-04-05T10:08:49.523Z,10.80
2019-04-05T10:13:43.617Z,8.73
2019-04-05T10:18:37.613Z,8.13
2019-04-05T10:23:31.630Z,7.90
2019-04-05T10:28:25.621Z,8.00
2019-04-05T10:33:19.618Z,7.40
2019-04-05T10:38:13.978Z,7.13
2019-04-05T10:43:08.070Z,6.60
2019-04-05T10:48:02.362Z,6.20
2019-04-05T10:52:56.482Z,5.72
2019-04-05T10:57:50.537Z,5.87
2019-04-05T11:02:44.731Z,5.85
2019-04-05T11:07:38.736Z,6.47
2019-04-05T11:12:32.669Z,5.75
2019-04-05T11:17:26.650Z,5.87
2019-04-05T11:22:21.147Z,5.57
2019-04-05T11:27:15.216Z,5.73
2019-04-05T11:32:09.302Z,5.77
2019-04-05T11:37:03.493Z,6.67
2019-04-05T11:41:58.010Z,6.40
2019-04-05T11:46:53.294Z,6.37
2019-04-05T11:51:47.370Z,6.73
2019-04-05T11:56:41.369Z,6.90
2019-04-05T12:01:37.288Z,7.00
2019-04-05T12:06:31.285Z,7.23
2019-04-05T12:11:25.409Z,7.53
2019-04-05T12:16:19.519Z,7.87
2019-04-05T12:21:13.719Z,7.93
2019-04-05T12:26:07.818Z,8.40
2019-04-05T12:31:01.921Z,7.83
2019-04-05T12:35:56.598Z,8.43
2019-04-05T12:40:51.145Z,8.20
2019-04-05T12:45:45.303Z,8.70
2019-04-05T12:50:39.442Z,9.13
2019-04-05T12:55:33.693Z,9.47
2019-04-05T13:00:27.795Z,9.73
2019-04-05T13:05:21.969Z,9.33
2019-04-05T13:10:16.261Z,9.87
2019-04-05T13:15:16.594Z,9.90
2019-04-05T13:20:07.031Z,10.40
2019-04-05T13:25:01.416Z,9.87
2019-04-05T13:29:55.488Z,10.60
2019-04-05T13:34:49.537Z,9.97
2019-04-05T13:39:43.589Z,10.90
2019-04-05T13:44:37.616Z,10.87
2019-04-05T13:49:31.592Z,9.33
2019-04-05T13:54:25.837Z,10.57
2019-04-05T13:59:19.924Z,10.43
2019-04-05T14:04:16.858Z,10.60
2019-04-05T14:09:10.489Z,11.43
2019-04-05T14:14:04.936Z,10.90
2019-04-05T14:18:59.151Z,11.27
2019-04-05T14:23:53.918Z,11.77
2019-04-05T14:28:48.137Z,11.00
2019-04-05T14:33:42.310Z,10.50
2019-04-05T14:38:36.320Z,9.97
2019-04-05T14:43:30.438Z,10.73
2019-04-05T14:48:27.341Z,12.97
2019-04-05T14:53:20.275Z,10.57
2019-04-05T14:58:14.380Z,11.30
2019-04-05T15:03:08.397Z,13.30
2019-04-05T15:08:02.545Z,12.20
2019-04-05T15:12:56.627Z,13.07
2019-04-05T15:17:50.693Z,13.17
2019-04-05T15:22:44.709Z,13.70
2019-04-05T15:27:38.903Z,13.10
2019-04-05T15:32:33.998Z,13.00
2019-04-05T15:37:31.771Z,26.90
2019-04-05T15:42:24.054Z,27.30
2019-04-05T15:47:18.092Z,13.57
2019-04-05T15:52:18.712Z,13.47
2019-04-05T15:57:08.090Z,13.40
2019-04-05T16:02:03.937Z,13.33
2019-04-05T16:06:58.077Z,14.23
2019-04-05T16:11:52.257Z,13.90
2019-04-05T16:16:46.460Z,14.30
2019-04-05T16:21:40.565Z,13.83
2019-04-05T16:26:34.791Z,14.97
2019-04-05T16:31:28.913Z,14.60
2019-04-05T16:36:23.144Z,14.73
2019-04-05T16:41:17.307Z,13.37
2019-04-05T16:46:11.417Z,13.93
2019-04-05T16:51:05.534Z,14.07
2019-04-05T16:55:59.754Z,13.90
2019-04-05T17:00:53.766Z,14.70
2019-04-05T17:05:47.880Z,14.00
2019-04-05T17:10:41.860Z,14.90
2019-04-05T17:15:36.061Z,14.47
2019-04-05T17:20:30.080Z,15.57
2019-04-05T17:25:24.202Z,16.10
2019-04-05T17:30:18.304Z,15.87
2019-04-05T17:35:12.497Z,16.97
2019-04-05T17:40:06.900Z,15.73
2019-04-05T17:45:00.996Z,17.67
2019-04-05T17:49:54.991Z,16.73
2019-04-05T17:54:49.084Z,17.90
2019-04-05T17:59:43.303Z,16.43
2019-04-05T18:04:37.432Z,17.93
2019-04-05T18:09:31.466Z,17.83
2019-04-05T18:14:25.684Z,18.33
2019-04-05T18:19:19.792Z,17.53
2019-04-05T18:24:13.793Z,17.33
2019-04-05T18:29:07.900Z,16.53
2019-04-05T18:34:01.981Z,17.73
2019-04-05T18:38:56.187Z,17.73
2019-04-05T18:43:50.167Z,18.27
2019-04-05T18:48:44.283Z,18.53
2019-04-05T18:53:38.772Z,17.83
2019-04-05T18:58:32.772Z,17.40
2019-04-05T19:03:26.786Z,17.03
2019-04-05T19:08:21.023Z,16.27
2019-04-05T19:13:15.300Z,17.17
2019-04-05T19:18:09.490Z,16.03
2019-04-05T19:23:03.549Z,16.47
2019-04-05T19:27:57.669Z,16.47
2019-04-05T19:52:35.774Z,16.80
2019-04-05T19:57:29.746Z,17.77
2019-04-05T20:02:24.168Z,17.63
2019-04-05T20:07:18.315Z,16.27
2019-04-05T20:12:12.499Z,18.37
2019-04-05T20:17:08.177Z,17.93
2019-04-05T20:22:02.543Z,18.43
2019-04-05T20:26:56.663Z,17.57
2019-04-05T20:31:50.777Z,18.10
2019-04-05T20:36:44.772Z,17.93
2019-04-05T20:41:38.883Z,17.60
2019-04-05T20:46:32.836Z,17.40
2019-04-05T20:51:26.935Z,18.17
2019-04-05T20:56:20.925Z,17.90
2019-04-05T21:01:15.112Z,16.30
2019-04-05T21:06:09.190Z,16.80
2019-04-05T21:11:03.380Z,17.60
2019-04-05T21:15:57.686Z,17.77
2019-04-05T21:20:51.933Z,17.50
2019-04-05T21:25:45.956Z,17.13
2019-04-05T21:30:40.081Z,17.50
2019-04-05T21:35:34.322Z,18.50
2019-04-05T21:40:28.310Z,18.37
2019-04-05T21:45:22.501Z,17.47
2019-04-05T21:50:16.479Z,17.00
2019-04-05T21:55:10.863Z,17.70
2019-04-05T22:00:11.750Z,17.63
2019-04-05T22:05:06.191Z,16.67
2019-04-05T22:10:00.298Z,15.93
2019-04-05T22:14:54.281Z,17.53
2019-04-05T22:19:48.287Z,16.80
2019-04-05T22:24:42.389Z,17.13
2019-04-05T22:29:36.455Z,17.60
2019-04-05T22:34:30.465Z,16.90
2019-04-05T22:39:24.501Z,16.47
2019-04-05T22:44:18.476Z,17.03
2019-04-05T22:49:12.447Z,17.17
2019-04-05T22:54:06.621Z,17.10
2019-04-05T22:59:00.611Z,17.13
2019-04-05T23:03:54.679Z,16.77
2019-04-05T23:08:48.674Z,17.13
2019-04-05T23:13:42.817Z,17.00
2019-04-05T23:18:36.935Z,16.87
2019-04-05T23:23:30.914Z,17.93
2019-04-05T23:28:25.060Z,16.97
2019-04-05T23:33:19.147Z,17.17
2019-04-05T23:38:13.417Z,17.73
2019-04-05T23:43:07.401Z,17.73
2019-04-05T23:48:01.392Z,17.20
2019-04-05T23:52:55.363Z,17.90
2019-04-05T23:57:49.367Z,17.37
